sensor_id;sensor_type;location;lat;lon;timestamp;pressure;altitude;pressure_sealevel;temperature;humidity
34081;BME280;20358;50.272;19.026;2023-02-21T00:00:29;97667.16;;;6.31;57.76
34081;BME280;20358;50.272;19.026;2023-02-21T00:03:53;97654.69;;;6.22;57.64
34081;BME280;20358;50.272;19.026;2023-02-21T00:07:15;97654.25;;;6.28;57.72
34081;BME280;20358;50.272;19.026;2023-02-21T00:10:37;97651.44;;;6.31;57.28
34081;BME280;20358;50.272;19.026;2023-02-21T00:13:59;97659.00;;;6.48;56.77
34081;BME280;20358;50.272;19.026;2023-02-21T00:17:20;97673.38;;;6.43;56.38
34081;BME280;20358;50.272;19.026;2023-02-21T00:20:45;97682.91;;;6.31;56.13
34081;BME280;20358;50.272;19.026;2023-02-21T00:24:11;97666.34;;;6.43;55.82
34081;BME280;20358;50.272;19.026;2023-02-21T00:27:34;97650.81;;;6.40;57.29
34081;BME280;20358;50.272;19.026;2023-02-21T00:30:55;97674.63;;;6.37;56.68
34081;BME280;20358;50.272;19.026;2023-02-21T00:34:18;97664.34;;;6.34;57.96
34081;BME280;20358;50.272;19.026;2023-02-21T00:37:42;97660.47;;;6.40;57.94
34081;BME280;20358;50.272;19.026;2023-02-21T00:41:05;97719.44;;;5.95;60.63
34081;BME280;20358;50.272;19.026;2023-02-21T00:44:26;97685.56;;;5.52;62.62
34081;BME280;20358;50.272;19.026;2023-02-21T00:47:48;97651.00;;;5.47;62.72
34081;BME280;20358;50.272;19.026;2023-02-21T00:51:09;97658.53;;;5.52;62.87
34081;BME280;20358;50.272;19.026;2023-02-21T00:54:35;97658.97;;;5.59;62.72
34081;BME280;20358;50.272;19.026;2023-02-21T00:57:56;97642.69;;;5.80;62.04
34081;BME280;20358;50.272;19.026;2023-02-21T01:01:19;97640.28;;;5.50;62.77
34081;BME280;20358;50.272;19.026;2023-02-21T01:04:40;97654.88;;;5.55;63.01
34081;BME280;20358;50.272;19.026;2023-02-21T01:08:02;97641.81;;;5.67;62.52
34081;BME280;20358;50.272;19.026;2023-02-21T01:11:27;97611.34;;;5.13;63.19
34081;BME280;20358;50.272;19.026;2023-02-21T01:14:49;97622.50;;;5.56;62.99
34081;BME280;20358;50.272;19.026;2023-02-21T01:18:10;97648.38;;;5.47;63.82
34081;BME280;20358;50.272;19.026;2023-02-21T01:21:32;97637.63;;;5.65;63.33
34081;BME280;20358;50.272;19.026;2023-02-21T01:24:53;97621.91;;;5.65;63.45
34081;BME280;20358;50.272;19.026;2023-02-21T01:28:18;97622.22;;;5.60;63.66
34081;BME280;20358;50.272;19.026;2023-02-21T01:31:39;97622.56;;;5.81;63.23
34081;BME280;20358;50.272;19.026;2023-02-21T01:35:02;97620.03;;;5.92;63.80
34081;BME280;20358;50.272;19.026;2023-02-21T01:38:25;97601.81;;;5.78;64.54
34081;BME280;20358;50.272;19.026;2023-02-21T01:41:47;97643.88;;;5.49;66.10
34081;BME280;20358;50.272;19.026;2023-02-21T01:45:39;97595.13;;;5.20;67.87
34081;BME280;20358;50.272;19.026;2023-02-21T01:49:10;97595.78;;;5.24;68.82
34081;BME280;20358;50.272;19.026;2023-02-21T01:52:35;97636.97;;;4.93;70.26
34081;BME280;20358;50.272;19.026;2023-02-21T01:55:59;97592.50;;;4.93;71.05
34081;BME280;20358;50.272;19.026;2023-02-21T01:59:23;97586.31;;;4.68;72.27
34081;BME280;20358;50.272;19.026;2023-02-21T02:02:56;97601.63;;;4.74;72.16
34081;BME280;20358;50.272;19.026;2023-02-21T02:06:20;97595.09;;;4.67;72.91
34081;BME280;20358;50.272;19.026;2023-02-21T02:09:42;97593.41;;;4.66;73.30
34081;BME280;20358;50.272;19.026;2023-02-21T02:13:22;97580.56;;;4.49;74.11
34081;BME280;20358;50.272;19.026;2023-02-21T02:16:59;97595.03;;;4.40;74.19
34081;BME280;20358;50.272;19.026;2023-02-21T02:28:41;97582.44;;;4.33;75.86
34081;BME280;20358;50.272;19.026;2023-02-21T02:32:34;97571.25;;;4.31;76.45
34081;BME280;20358;50.272;19.026;2023-02-21T02:35:57;96611.69;;;-1.53;76.19
34081;BME280;20358;50.272;19.026;2023-02-21T02:39:22;97581.31;;;4.37;76.47
34081;BME280;20358;50.272;19.026;2023-02-21T02:42:45;97592.34;;;4.27;77.18
34081;BME280;20358;50.272;19.026;2023-02-21T02:46:07;97588.06;;;4.12;77.72
34081;BME280;20358;50.272;19.026;2023-02-21T02:49:21;97550.72;;;3.96;78.86
34081;BME280;20358;50.272;19.026;2023-02-21T02:52:33;97593.06;;;4.15;78.50
34081;BME280;20358;50.272;19.026;2023-02-21T02:55:44;97506.47;;;3.65;78.77
34081;BME280;20358;50.272;19.026;2023-02-21T02:58:59;97592.34;;;3.99;80.21
34081;BME280;20358;50.272;19.026;2023-02-21T03:02:25;97147.41;;;1.49;79.34
34081;BME280;20358;50.272;19.026;2023-02-21T03:06:03;97532.25;;;3.85;79.94
34081;BME280;20358;50.272;19.026;2023-02-21T03:09:29;97516.16;;;3.63;79.04
34081;BME280;20358;50.272;19.026;2023-02-21T03:12:50;97593.72;;;4.19;79.26
34081;BME280;20358;50.272;19.026;2023-02-21T03:16:18;97479.50;;;3.50;79.82
34081;BME280;20358;50.272;19.026;2023-02-21T03:19:34;97278.00;;;2.17;79.05
34081;BME280;20358;50.272;19.026;2023-02-21T03:22:45;97576.09;;;4.08;79.71
34081;BME280;20358;50.272;19.026;2023-02-21T03:26:01;97518.00;;;3.61;79.75
34081;BME280;20358;50.272;19.026;2023-02-21T03:29:15;97594.16;;;3.97;80.13
34081;BME280;20358;50.272;19.026;2023-02-21T03:32:26;97391.16;;;2.72;79.99
34081;BME280;20358;50.272;19.026;2023-02-21T03:35:35;97548.97;;;3.67;80.67
34081;BME280;20358;50.272;19.026;2023-02-21T03:38:41;97598.63;;;3.81;80.58
34081;BME280;20358;50.272;19.026;2023-02-21T03:41:50;97563.78;;;3.96;80.25
34081;BME280;20358;50.272;19.026;2023-02-21T03:44:56;97363.72;;;2.51;80.59
34081;BME280;20358;50.272;19.026;2023-02-21T03:48:03;97573.50;;;3.94;81.23
34081;BME280;20358;50.272;19.026;2023-02-21T03:51:12;97586.34;;;3.83;81.30
34081;BME280;20358;50.272;19.026;2023-02-21T03:54:18;97598.47;;;3.98;80.84
34081;BME280;20358;50.272;19.026;2023-02-21T03:57:33;97527.03;;;3.41;81.75
34081;BME280;20358;50.272;19.026;2023-02-21T04:00:39;97599.97;;;3.88;82.05
34081;BME280;20358;50.272;19.026;2023-02-21T04:03:45;97495.59;;;3.43;81.26
34081;BME280;20358;50.272;19.026;2023-02-21T04:06:53;97604.28;;;4.03;81.55
34081;BME280;20358;50.272;19.026;2023-02-21T04:10:00;97585.97;;;3.89;81.50
34081;BME280;20358;50.272;19.026;2023-02-21T04:13:17;97605.88;;;3.76;82.00
34081;BME280;20358;50.272;19.026;2023-02-21T04:16:26;97585.78;;;3.92;81.33
34081;BME280;20358;50.272;19.026;2023-02-21T04:19:32;97445.88;;;3.02;81.41
34081;BME280;20358;50.272;19.026;2023-02-21T04:22:40;97582.25;;;3.93;81.78
34081;BME280;20358;50.272;19.026;2023-02-21T04:26:00;97588.78;;;4.00;81.42
34081;BME280;20358;50.272;19.026;2023-02-21T04:29:19;97571.22;;;3.88;80.97
34081;BME280;20358;50.272;19.026;2023-02-21T04:32:25;97596.59;;;3.86;81.23
34081;BME280;20358;50.272;19.026;2023-02-21T04:35:33;97611.91;;;3.92;81.05
34081;BME280;20358;50.272;19.026;2023-02-21T04:38:47;97599.22;;;4.00;80.87
34081;BME280;20358;50.272;19.026;2023-02-21T04:41:54;97597.00;;;3.94;81.86
34081;BME280;20358;50.272;19.026;2023-02-21T04:45:03;97604.63;;;3.97;81.50
34081;BME280;20358;50.272;19.026;2023-02-21T04:48:11;97582.47;;;3.75;82.19
34081;BME280;20358;50.272;19.026;2023-02-21T04:51:21;97600.41;;;3.95;81.08
34081;BME280;20358;50.272;19.026;2023-02-21T04:54:29;97573.03;;;3.72;81.50
34081;BME280;20358;50.272;19.026;2023-02-21T04:57:34;97598.44;;;3.84;81.66
34081;BME280;20358;50.272;19.026;2023-02-21T05:00:45;97597.28;;;3.74;81.82
34081;BME280;20358;50.272;19.026;2023-02-21T05:03:51;97606.53;;;3.80;81.51
34081;BME280;20358;50.272;19.026;2023-02-21T05:06:57;97600.13;;;3.85;81.48
34081;BME280;20358;50.272;19.026;2023-02-21T05:10:04;97615.63;;;3.88;81.98
34081;BME280;20358;50.272;19.026;2023-02-21T05:13:12;97534.94;;;3.40;81.79
34081;BME280;20358;50.272;19.026;2023-02-21T05:16:21;97602.16;;;3.80;81.78
34081;BME280;20358;50.272;19.026;2023-02-21T05:19:28;97611.28;;;3.73;82.22
34081;BME280;20358;50.272;19.026;2023-02-21T05:22:34;97609.75;;;3.69;83.88
34081;BME280;20358;50.272;19.026;2023-02-21T05:25:42;97603.50;;;3.87;83.07
34081;BME280;20358;50.272;19.026;2023-02-21T05:28:47;97613.59;;;3.93;82.22
34081;BME280;20358;50.272;19.026;2023-02-21T05:31:57;97606.13;;;4.01;81.28
34081;BME280;20358;50.272;19.026;2023-02-21T05:35:05;97604.28;;;4.03;80.44
34081;BME280;20358;50.272;19.026;2023-02-21T05:38:13;97605.97;;;4.04;80.64
34081;BME280;20358;50.272;19.026;2023-02-21T05:41:19;97600.25;;;3.98;80.47
34081;BME280;20358;50.272;19.026;2023-02-21T05:44:25;97595.69;;;4.01;81.22
34081;BME280;20358;50.272;19.026;2023-02-21T05:47:35;97597.38;;;4.02;80.47
34081;BME280;20358;50.272;19.026;2023-02-21T05:50:42;97595.88;;;3.98;80.73
34081;BME280;20358;50.272;19.026;2023-02-21T05:53:48;97612.91;;;3.90;81.21
34081;BME280;20358;50.272;19.026;2023-02-21T05:56:55;97599.53;;;3.80;81.08
34081;BME280;20358;50.272;19.026;2023-02-21T06:00:01;97606.78;;;3.91;81.24
34081;BME280;20358;50.272;19.026;2023-02-21T06:03:16;97602.13;;;3.96;81.54
34081;BME280;20358;50.272;19.026;2023-02-21T06:06:21;97595.59;;;3.89;81.24
34081;BME280;20358;50.272;19.026;2023-02-21T06:09:28;97584.56;;;3.84;81.39
34081;BME280;20358;50.272;19.026;2023-02-21T06:12:34;97576.88;;;3.81;81.58
34081;BME280;20358;50.272;19.026;2023-02-21T06:15:40;97606.41;;;3.67;81.57
34081;BME280;20358;50.272;19.026;2023-02-21T06:18:52;97592.22;;;3.87;81.30
34081;BME280;20358;50.272;19.026;2023-02-21T06:21:59;97613.72;;;3.76;82.10
34081;BME280;20358;50.272;19.026;2023-02-21T06:25:05;97619.69;;;3.78;81.76
34081;BME280;20358;50.272;19.026;2023-02-21T06:28:13;97619.16;;;3.87;81.37
34081;BME280;20358;50.272;19.026;2023-02-21T06:31:19;97619.66;;;3.94;81.22
34081;BME280;20358;50.272;19.026;2023-02-21T06:34:31;97615.47;;;3.91;81.81
34081;BME280;20358;50.272;19.026;2023-02-21T06:37:37;97622.16;;;3.95;81.45
34081;BME280;20358;50.272;19.026;2023-02-21T06:40:44;97642.03;;;3.98;80.73
34081;BME280;20358;50.272;19.026;2023-02-21T06:43:50;97646.41;;;3.97;81.31
34081;BME280;20358;50.272;19.026;2023-02-21T06:46:57;97631.91;;;4.07;80.65
34081;BME280;20358;50.272;19.026;2023-02-21T06:50:06;97642.34;;;4.07;80.78
34081;BME280;20358;50.272;19.026;2023-02-21T06:53:12;97649.53;;;4.04;80.58
34081;BME280;20358;50.272;19.026;2023-02-21T06:56:18;97642.91;;;4.26;80.69
34081;BME280;20358;50.272;19.026;2023-02-21T06:59:25;97642.63;;;4.17;79.93
34081;BME280;20358;50.272;19.026;2023-02-21T07:02:30;97652.06;;;4.19;80.25
34081;BME280;20358;50.272;19.026;2023-02-21T07:05:39;97641.34;;;4.10;80.35
34081;BME280;20358;50.272;19.026;2023-02-21T07:08:45;97634.13;;;3.99;80.67
34081;BME280;20358;50.272;19.026;2023-02-21T07:11:52;97665.09;;;4.05;80.38
34081;BME280;20358;50.272;19.026;2023-02-21T07:14:57;97653.28;;;4.14;79.73
34081;BME280;20358;50.272;19.026;2023-02-21T07:18:04;97653.16;;;4.01;81.13
34081;BME280;20358;50.272;19.026;2023-02-21T07:21:17;97661.50;;;4.22;80.79
34081;BME280;20358;50.272;19.026;2023-02-21T07:24:26;97658.78;;;4.23;80.07
34081;BME280;20358;50.272;19.026;2023-02-21T07:27:37;97649.44;;;4.19;80.22
34081;BME280;20358;50.272;19.026;2023-02-21T07:30:44;97644.97;;;4.21;79.89
34081;BME280;20358;50.272;19.026;2023-02-21T07:33:50;97672.69;;;4.24;80.06
34081;BME280;20358;50.272;19.026;2023-02-21T07:36:59;97676.41;;;4.06;80.93
34081;BME280;20358;50.272;19.026;2023-02-21T07:40:09;97667.28;;;4.27;80.46
34081;BME280;20358;50.272;19.026;2023-02-21T07:43:18;97588.19;;;3.51;80.17
34081;BME280;20358;50.272;19.026;2023-02-21T07:46:26;97656.00;;;4.12;80.53
34081;BME280;20358;50.272;19.026;2023-02-21T07:49:36;97661.59;;;4.20;80.38
34081;BME280;20358;50.272;19.026;2023-02-21T07:52:45;97680.56;;;4.38;79.70
34081;BME280;20358;50.272;19.026;2023-02-21T07:55:51;97659.16;;;4.32;79.77
34081;BME280;20358;50.272;19.026;2023-02-21T07:58:57;97662.16;;;4.54;79.44
34081;BME280;20358;50.272;19.026;2023-02-21T08:02:04;97649.06;;;4.68;79.08
34081;BME280;20358;50.272;19.026;2023-02-21T08:05:14;97630.63;;;4.57;78.21
34081;BME280;20358;50.272;19.026;2023-02-21T08:08:24;97648.34;;;4.66;77.69
34081;BME280;20358;50.272;19.026;2023-02-21T08:11:30;97667.81;;;4.88;77.56
34081;BME280;20358;50.272;19.026;2023-02-21T08:14:38;97673.34;;;4.98;77.51
34081;BME280;20358;50.272;19.026;2023-02-21T08:17:46;97677.25;;;4.91;77.40
34081;BME280;20358;50.272;19.026;2023-02-21T08:20:55;97681.00;;;4.87;77.16
34081;BME280;20358;50.272;19.026;2023-02-21T08:24:04;97571.44;;;4.27;77.01
34081;BME280;20358;50.272;19.026;2023-02-21T08:27:10;97669.03;;;4.83;77.00
34081;BME280;20358;50.272;19.026;2023-02-21T08:30:19;97683.81;;;4.98;77.14
34081;BME280;20358;50.272;19.026;2023-02-21T08:33:27;97715.41;;;4.95;76.35
34081;BME280;20358;50.272;19.026;2023-02-21T08:36:35;97672.19;;;5.02;76.35
34081;BME280;20358;50.272;19.026;2023-02-21T08:39:46;97686.56;;;5.09;76.24
34081;BME280;20358;50.272;19.026;2023-02-21T08:42:53;97667.91;;;5.01;75.91
34081;BME280;20358;50.272;19.026;2023-02-21T08:46:00;97669.88;;;4.98;75.61
34081;BME280;20358;50.272;19.026;2023-02-21T08:49:07;97688.94;;;5.00;75.37
34081;BME280;20358;50.272;19.026;2023-02-21T08:52:15;97681.34;;;5.09;75.06
34081;BME280;20358;50.272;19.026;2023-02-21T08:55:25;97682.38;;;5.07;75.08
34081;BME280;20358;50.272;19.026;2023-02-21T08:58:32;97694.41;;;5.23;75.15
34081;BME280;20358;50.272;19.026;2023-02-21T09:01:39;97693.44;;;5.24;75.19
34081;BME280;20358;50.272;19.026;2023-02-21T09:04:45;97715.00;;;5.15;75.51
34081;BME280;20358;50.272;19.026;2023-02-21T09:07:52;97716.94;;;5.26;75.54
34081;BME280;20358;50.272;19.026;2023-02-21T09:11:04;97717.34;;;5.06;75.03
34081;BME280;20358;50.272;19.026;2023-02-21T09:14:10;97711.44;;;5.02;75.11
34081;BME280;20358;50.272;19.026;2023-02-21T09:17:16;97719.50;;;4.99;74.08
34081;BME280;20358;50.272;19.026;2023-02-21T09:20:24;97733.13;;;5.04;74.26
34081;BME280;20358;50.272;19.026;2023-02-21T09:23:31;97708.06;;;5.14;73.76
34081;BME280;20358;50.272;19.026;2023-02-21T09:26:40;97725.81;;;5.23;73.31
34081;BME280;20358;50.272;19.026;2023-02-21T09:29:48;97733.75;;;5.50;73.28
34081;BME280;20358;50.272;19.026;2023-02-21T09:32:54;97716.25;;;5.36;73.43
34081;BME280;20358;50.272;19.026;2023-02-21T09:36:01;97726.34;;;5.42;74.70
34081;BME280;20358;50.272;19.026;2023-02-21T09:39:06;97752.19;;;5.20;74.66
34081;BME280;20358;50.272;19.026;2023-02-21T09:42:18;97427.53;;;3.18;75.16
34081;BME280;20358;50.272;19.026;2023-02-21T09:45:30;97746.00;;;5.49;74.06
34081;BME280;20358;50.272;19.026;2023-02-21T09:48:40;97753.06;;;5.62;74.01
34081;BME280;20358;50.272;19.026;2023-02-21T09:51:48;97762.06;;;5.84;72.85
34081;BME280;20358;50.272;19.026;2023-02-21T09:54:57;97750.50;;;5.74;73.00
34081;BME280;20358;50.272;19.026;2023-02-21T09:58:13;97756.66;;;6.00;73.68
34081;BME280;20358;50.272;19.026;2023-02-21T10:01:32;97739.50;;;5.82;73.83
34081;BME280;20358;50.272;19.026;2023-02-21T10:05:00;97752.81;;;5.79;74.39
34081;BME280;20358;50.272;19.026;2023-02-21T10:08:21;97756.38;;;5.78;74.17
34081;BME280;20358;50.272;19.026;2023-02-21T10:11:53;97756.03;;;5.70;74.24
34081;BME280;20358;50.272;19.026;2023-02-21T10:15:27;97742.94;;;5.70;74.50
34081;BME280;20358;50.272;19.026;2023-02-21T10:18:46;97731.38;;;5.86;73.52
34081;BME280;20358;50.272;19.026;2023-02-21T10:22:12;97752.19;;;6.02;73.74
34081;BME280;20358;50.272;19.026;2023-02-21T10:25:25;97742.16;;;5.94;72.62
34081;BME280;20358;50.272;19.026;2023-02-21T10:28:34;97733.53;;;6.06;72.14
34081;BME280;20358;50.272;19.026;2023-02-21T10:31:43;97743.91;;;6.08;71.58
34081;BME280;20358;50.272;19.026;2023-02-21T10:34:52;97748.22;;;6.22;70.86
34081;BME280;20358;50.272;19.026;2023-02-21T10:38:02;97745.28;;;6.26;70.03
34081;BME280;20358;50.272;19.026;2023-02-21T10:41:11;97748.41;;;6.06;72.34
34081;BME280;20358;50.272;19.026;2023-02-21T10:44:22;97745.06;;;6.04;74.27
34081;BME280;20358;50.272;19.026;2023-02-21T10:47:52;97751.28;;;5.89;74.96
34081;BME280;20358;50.272;19.026;2023-02-21T10:51:07;97797.81;;;5.44;75.38
34081;BME280;20358;50.272;19.026;2023-02-21T10:54:18;97752.88;;;5.65;76.22
34081;BME280;20358;50.272;19.026;2023-02-21T10:57:27;97755.59;;;5.63;76.51
34081;BME280;20358;50.272;19.026;2023-02-21T11:00:37;97769.16;;;5.56;76.53
34081;BME280;20358;50.272;19.026;2023-02-21T11:03:54;97736.81;;;5.57;76.71
34081;BME280;20358;50.272;19.026;2023-02-21T11:07:07;97780.59;;;5.40;75.13
34081;BME280;20358;50.272;19.026;2023-02-21T11:10:27;97751.78;;;5.55;75.82
34081;BME280;20358;50.272;19.026;2023-02-21T11:13:36;97769.69;;;5.75;75.11
34081;BME280;20358;50.272;19.026;2023-02-21T11:16:42;97745.78;;;5.79;74.97
34081;BME280;20358;50.272;19.026;2023-02-21T11:19:55;97764.31;;;6.03;74.04
34081;BME280;20358;50.272;19.026;2023-02-21T11:23:02;97766.78;;;5.92;73.60
34081;BME280;20358;50.272;19.026;2023-02-21T11:26:12;97756.59;;;5.61;74.01
34081;BME280;20358;50.272;19.026;2023-02-21T11:29:22;97771.41;;;5.62;74.31
34081;BME280;20358;50.272;19.026;2023-02-21T11:32:34;97783.94;;;5.57;74.10
34081;BME280;20358;50.272;19.026;2023-02-21T11:35:48;97747.44;;;5.68;74.85
34081;BME280;20358;50.272;19.026;2023-02-21T11:39:05;97765.59;;;5.57;74.68
34081;BME280;20358;50.272;19.026;2023-02-21T11:42:27;97756.03;;;5.70;73.82
34081;BME280;20358;50.272;19.026;2023-02-21T11:45:39;97763.16;;;5.68;73.10
34081;BME280;20358;50.272;19.026;2023-02-21T11:49:13;97812.06;;;5.81;72.33
34081;BME280;20358;50.272;19.026;2023-02-21T11:52:34;97780.84;;;5.91;70.98
34081;BME280;20358;50.272;19.026;2023-02-21T11:55:54;97793.97;;;6.30;70.59
34081;BME280;20358;50.272;19.026;2023-02-21T11:59:21;97782.47;;;6.45;69.33
34081;BME280;20358;50.272;19.026;2023-02-21T12:02:57;97795.09;;;6.65;66.75
34081;BME280;20358;50.272;19.026;2023-02-21T12:06:34;97367.88;;;3.96;66.89
34081;BME280;20358;50.272;19.026;2023-02-21T12:09:58;97794.22;;;6.52;66.82
34081;BME280;20358;50.272;19.026;2023-02-21T12:13:19;97817.69;;;6.41;66.36
34081;BME280;20358;50.272;19.026;2023-02-21T12:16:44;97796.50;;;6.32;66.16
34081;BME280;20358;50.272;19.026;2023-02-21T12:20:14;97756.81;;;6.11;66.68
34081;BME280;20358;50.272;19.026;2023-02-21T12:23:37;97799.88;;;6.46;66.22
34081;BME280;20358;50.272;19.026;2023-02-21T12:27:00;97784.59;;;6.65;65.00
34081;BME280;20358;50.272;19.026;2023-02-21T12:30:26;97776.53;;;6.94;63.91
34081;BME280;20358;50.272;19.026;2023-02-21T12:33:58;97777.28;;;7.08;62.90
34081;BME280;20358;50.272;19.026;2023-02-21T12:37:25;97766.56;;;7.24;62.52
34081;BME280;20358;50.272;19.026;2023-02-21T12:40:51;97771.59;;;7.02;58.08
34081;BME280;20358;50.272;19.026;2023-02-21T12:44:12;97822.53;;;7.12;58.78
34081;BME280;20358;50.272;19.026;2023-02-21T12:47:27;97792.19;;;7.08;58.37
34081;BME280;20358;50.272;19.026;2023-02-21T12:50:40;97776.50;;;7.19;60.11
34081;BME280;20358;50.272;19.026;2023-02-21T12:53:54;97787.34;;;7.14;61.49
34081;BME280;20358;50.272;19.026;2023-02-21T12:57:08;97766.34;;;7.02;64.02
34081;BME280;20358;50.272;19.026;2023-02-21T13:00:24;97745.38;;;6.77;64.07
34081;BME280;20358;50.272;19.026;2023-02-21T13:03:46;97776.91;;;6.62;63.93
34081;BME280;20358;50.272;19.026;2023-02-21T13:07:03;97766.06;;;6.29;64.51
34081;BME280;20358;50.272;19.026;2023-02-21T13:10:31;97797.50;;;6.17;63.09
34081;BME280;20358;50.272;19.026;2023-02-21T13:13:45;97768.69;;;6.29;63.59
34081;BME280;20358;50.272;19.026;2023-02-21T13:16:54;97817.09;;;6.11;63.48
34081;BME280;20358;50.272;19.026;2023-02-21T13:20:05;97784.56;;;6.40;64.19
34081;BME280;20358;50.272;19.026;2023-02-21T13:23:40;97813.75;;;6.48;64.87
34081;BME280;20358;50.272;19.026;2023-02-21T13:30:54;97800.88;;;6.31;64.55
34081;BME280;20358;50.272;19.026;2023-02-21T13:34:09;97792.34;;;6.54;64.36
34081;BME280;20358;50.272;19.026;2023-02-21T13:37:20;97760.81;;;6.29;63.14
34081;BME280;20358;50.272;19.026;2023-02-21T13:40:35;97818.75;;;6.51;62.75
34081;BME280;20358;50.272;19.026;2023-02-21T13:43:56;97769.88;;;6.50;62.54
34081;BME280;20358;50.272;19.026;2023-02-21T13:47:11;97813.44;;;6.65;62.99
34081;BME280;20358;50.272;19.026;2023-02-21T13:50:44;97806.94;;;6.58;62.87
34081;BME280;20358;50.272;19.026;2023-02-21T13:54:09;97866.06;;;6.37;64.09
34081;BME280;20358;50.272;19.026;2023-02-21T13:57:28;97840.38;;;6.42;64.17
34081;BME280;20358;50.272;19.026;2023-02-21T14:00:50;97776.91;;;6.50;64.96
34081;BME280;20358;50.272;19.026;2023-02-21T14:03:58;97790.47;;;6.56;64.57
34081;BME280;20358;50.272;19.026;2023-02-21T14:07:07;97793.00;;;6.70;64.63
34081;BME280;20358;50.272;19.026;2023-02-21T14:10:22;97790.00;;;6.89;64.36
34081;BME280;20358;50.272;19.026;2023-02-21T14:13:34;97783.97;;;6.74;64.72
34081;BME280;20358;50.272;19.026;2023-02-21T14:16:47;97794.72;;;6.97;64.25
34081;BME280;20358;50.272;19.026;2023-02-21T14:19:55;97794.50;;;7.00;63.37
34081;BME280;20358;50.272;19.026;2023-02-21T14:23:05;97874.44;;;7.08;63.51
34081;BME280;20358;50.272;19.026;2023-02-21T14:26:34;97814.78;;;6.98;62.90
34081;BME280;20358;50.272;19.026;2023-02-21T14:29:45;97793.13;;;7.07;62.27
34081;BME280;20358;50.272;19.026;2023-02-21T14:33:29;97812.13;;;6.85;62.17
34081;BME280;20358;50.272;19.026;2023-02-21T14:36:37;97807.31;;;6.79;61.61
34081;BME280;20358;50.272;19.026;2023-02-21T14:39:50;97801.00;;;6.82;63.00
34081;BME280;20358;50.272;19.026;2023-02-21T14:43:19;97828.84;;;6.57;63.47
34081;BME280;20358;50.272;19.026;2023-02-21T14:50:40;97810.22;;;6.74;64.71
34081;BME280;20358;50.272;19.026;2023-02-21T14:54:16;97798.81;;;6.49;66.14
34081;BME280;20358;50.272;19.026;2023-02-21T14:58:11;97811.47;;;6.56;66.47
34081;BME280;20358;50.272;19.026;2023-02-21T15:01:45;97819.75;;;6.75;64.96
34081;BME280;20358;50.272;19.026;2023-02-21T15:05:15;97817.34;;;6.72;63.77
34081;BME280;20358;50.272;19.026;2023-02-21T15:08:26;97818.22;;;6.86;63.41
34081;BME280;20358;50.272;19.026;2023-02-21T15:11:36;97829.97;;;6.80;62.78
34081;BME280;20358;50.272;19.026;2023-02-21T15:14:51;97811.41;;;6.96;62.43
34081;BME280;20358;50.272;19.026;2023-02-21T15:18:02;97841.13;;;6.96;62.41
34081;BME280;20358;50.272;19.026;2023-02-21T15:21:17;97831.66;;;6.94;61.76
34081;BME280;20358;50.272;19.026;2023-02-21T15:24:24;97845.22;;;6.88;61.70
34081;BME280;20358;50.272;19.026;2023-02-21T15:27:30;97860.41;;;6.83;61.49
34081;BME280;20358;50.272;19.026;2023-02-21T15:30:40;97840.88;;;6.74;61.88
34081;BME280;20358;50.272;19.026;2023-02-21T15:33:51;97837.97;;;6.79;60.73
34081;BME280;20358;50.272;19.026;2023-02-21T15:37:01;97843.63;;;6.85;60.92
34081;BME280;20358;50.272;19.026;2023-02-21T15:40:15;97866.66;;;6.67;60.88
34081;BME280;20358;50.272;19.026;2023-02-21T15:43:32;97867.41;;;6.69;60.88
34081;BME280;20358;50.272;19.026;2023-02-21T15:46:52;97841.31;;;6.81;61.79
34081;BME280;20358;50.272;19.026;2023-02-21T15:50:06;97866.09;;;6.77;60.97
34081;BME280;20358;50.272;19.026;2023-02-21T15:53:19;97860.13;;;6.60;61.50
34081;BME280;20358;50.272;19.026;2023-02-21T15:56:26;97880.09;;;6.63;62.14
34081;BME280;20358;50.272;19.026;2023-02-21T15:59:33;97867.47;;;6.55;62.53
34081;BME280;20358;50.272;19.026;2023-02-21T16:02:42;97874.94;;;6.61;62.15
34081;BME280;20358;50.272;19.026;2023-02-21T16:05:48;97861.22;;;6.70;62.59
34081;BME280;20358;50.272;19.026;2023-02-21T16:08:58;97708.50;;;5.76;63.05
34081;BME280;20358;50.272;19.026;2023-02-21T16:12:25;97877.34;;;6.64;63.70
34081;BME280;20358;50.272;19.026;2023-02-21T16:15:36;97892.22;;;6.51;63.53
34081;BME280;20358;50.272;19.026;2023-02-21T16:18:54;97882.13;;;6.72;64.05
34081;BME280;20358;50.272;19.026;2023-02-21T16:22:24;97889.53;;;6.65;63.58
34081;BME280;20358;50.272;19.026;2023-02-21T16:25:59;97880.09;;;6.63;64.21
34081;BME280;20358;50.272;19.026;2023-02-21T16:29:08;97903.19;;;6.70;64.59
34081;BME280;20358;50.272;19.026;2023-02-21T16:32:17;97886.19;;;6.63;64.28
34081;BME280;20358;50.272;19.026;2023-02-21T16:35:27;97889.72;;;6.62;64.60
34081;BME280;20358;50.272;19.026;2023-02-21T16:38:34;97903.38;;;6.67;64.15
34081;BME280;20358;50.272;19.026;2023-02-21T16:41:40;97908.59;;;6.55;63.83
34081;BME280;20358;50.272;19.026;2023-02-21T16:44:46;97704.88;;;5.23;64.64
34081;BME280;20358;50.272;19.026;2023-02-21T16:47:56;97907.94;;;6.51;64.08
34081;BME280;20358;50.272;19.026;2023-02-21T16:51:11;97912.91;;;6.29;64.51
34081;BME280;20358;50.272;19.026;2023-02-21T16:54:19;97900.34;;;6.34;64.68
34081;BME280;20358;50.272;19.026;2023-02-21T16:57:25;97919.44;;;6.36;64.29
34081;BME280;20358;50.272;19.026;2023-02-21T17:00:32;97906.97;;;6.40;63.90
34081;BME280;20358;50.272;19.026;2023-02-21T17:03:38;97910.91;;;6.06;64.92
34081;BME280;20358;50.272;19.026;2023-02-21T17:06:52;97914.88;;;6.26;64.23
34081;BME280;20358;50.272;19.026;2023-02-21T17:10:00;97927.66;;;6.44;64.11
34081;BME280;20358;50.272;19.026;2023-02-21T17:13:06;97929.25;;;6.20;64.04
34081;BME280;20358;50.272;19.026;2023-02-21T17:16:12;97909.22;;;6.05;63.77
34081;BME280;20358;50.272;19.026;2023-02-21T17:19:19;97932.91;;;6.18;63.79
34081;BME280;20358;50.272;19.026;2023-02-21T17:22:32;97953.78;;;6.05;63.63
34081;BME280;20358;50.272;19.026;2023-02-21T17:25:38;97937.84;;;6.22;63.86